Time;durP1;ratioP1;P1;durP2;ratioP2;P2;SDS_P1;SDS_P2;PMS_P1;PMS_P2;Temp;Humidity;BMP_temperature;BMP_pressure;BME280_temperature;BME280_humidity;BME280_pressure;Samples;Min_cycle;Max_cycle;Signal;HPM_P1;HPM_P2
2021/07/03 00:00:10;;;;;;;11.68;8.00;;;;;;;20.15;66.98;99596.78;5111338;28;20047;-23
2021/07/03 00:02:36;;;;;;;11.70;7.63;;;;;;;20.10;67.64;99580.59;5089636;28;20138;-23
2021/07/03 00:05:01;;;;;;;13.07;8.68;;;;;;;20.30;67.75;99576.78;5091480;28;20031;-23
2021/07/03 00:07:27;;;;;;;13.25;9.07;;;;;;;20.23;68.96;99585.28;5091268;28;20094;-23
2021/07/03 00:09:52;;;;;;;14.60;8.15;;;;;;;20.32;67.59;99591.63;5090706;28;20023;-23
2021/07/03 00:12:18;;;;;;;10.57;7.45;;;;;;;20.47;66.04;99577.84;5090114;28;20031;-23
2021/07/03 00:14:43;;;;;;;12.52;7.90;;;;;;;20.55;65.60;99589.06;5091429;28;20815;-23
2021/07/03 00:17:09;;;;;;;12.02;7.45;;;;;;;20.54;65.56;99571.22;5091095;28;20039;-23
2021/07/03 00:19:34;;;;;;;10.68;7.80;;;;;;;20.27;65.60;99570.06;5091000;28;20035;-23
2021/07/03 00:21:59;;;;;;;9.65;7.07;;;;;;;19.72;66.50;99567.88;5090644;28;20493;-23
2021/07/03 00:24:25;;;;;;;8.25;6.30;;;;;;;19.73;66.04;99587.63;5090735;28;20032;-23
2021/07/03 00:26:50;;;;;;;9.82;6.78;;;;;;;19.60;66.11;99570.19;5090969;28;20043;-23
2021/07/03 00:29:16;;;;;;;8.93;6.40;;;;;;;19.50;66.75;99581.94;5090755;28;20028;-23
2021/07/03 00:31:41;;;;;;;9.88;6.50;;;;;;;19.35;67.34;99582.09;5090738;28;20494;-23
2021/07/03 00:34:07;;;;;;;10.02;6.63;;;;;;;19.11;68.03;99591.03;5090850;28;20391;-23
2021/07/03 00:36:32;;;;;;;8.15;5.78;;;;;;;19.06;68.34;99582.97;5090795;28;20024;-23
2021/07/03 00:38:58;;;;;;;8.73;5.93;;;;;;;19.06;68.28;99578.41;5090671;28;20028;-23
2021/07/03 00:41:23;;;;;;;9.88;6.47;;;;;;;19.14;67.61;99568.03;5090521;28;20032;-23
2021/07/03 00:43:49;;;;;;;8.90;6.28;;;;;;;19.12;68.28;99581.03;5090378;28;20028;-23
2021/07/03 00:46:14;;;;;;;9.55;6.32;;;;;;;19.11;68.33;99584.84;5090780;28;20469;-23
2021/07/03 00:48:40;;;;;;;10.50;6.85;;;;;;;19.20;67.98;99586.59;5090584;28;20066;-22
2021/07/03 00:51:05;;;;;;;9.50;6.55;;;;;;;18.90;68.83;99565.31;5089881;28;20072;-23
2021/07/03 00:53:31;;;;;;;9.25;6.60;;;;;;;18.91;69.18;99581.25;5090214;28;20036;-23
2021/07/03 00:55:56;;;;;;;10.75;6.15;;;;;;;18.98;68.72;99572.78;5072041;28;20403;-23
2021/07/03 00:58:22;;;;;;;8.80;6.35;;;;;;;18.93;68.97;99580.97;5089091;28;20036;-23
2021/07/03 01:00:47;;;;;;;9.82;6.47;;;;;;;18.92;69.23;99573.94;5090002;28;20518;-22
2021/07/03 01:03:13;;;;;;;9.05;6.50;;;;;;;18.90;68.94;99595.03;5101364;28;20055;-23
2021/07/03 01:05:38;;;;;;;12.18;6.68;;;;;;;19.02;68.73;99590.03;5110777;28;20032;-23
2021/07/03 01:08:04;;;;;;;10.70;6.20;;;;;;;19.32;67.59;99585.41;5091737;28;20035;-23
2021/07/03 01:10:30;;;;;;;9.18;6.57;;;;;;;19.50;66.89;99581.13;5110493;28;20015;-23
2021/07/03 01:12:56;;;;;;;10.70;6.80;;;;;;;19.73;66.16;99582.19;5110283;28;20402;-23
2021/07/03 01:15:22;;;;;;;11.65;6.97;;;;;;;19.77;65.54;99581.31;5092055;28;20525;-23
2021/07/03 01:17:47;;;;;;;10.07;7.18;;;;;;;19.88;65.60;99576.59;5109985;28;20114;-23
2021/07/03 01:20:14;;;;;;;9.88;6.40;;;;;;;19.90;65.35;99579.81;5110128;28;20024;-23
2021/07/03 01:22:40;;;;;;;9.52;6.63;;;;;;;19.79;65.63;99573.72;5091539;28;20483;-23
2021/07/03 01:25:06;;;;;;;11.45;6.75;;;;;;;19.74;65.25;99559.47;5110152;28;20401;-23
2021/07/03 01:27:32;;;;;;;10.35;6.57;;;;;;;19.82;65.31;99567.75;5110347;28;20126;-23
2021/07/03 01:29:58;;;;;;;9.82;7.03;;;;;;;19.54;66.19;99571.34;5109888;28;20030;-23
2021/07/03 01:32:24;;;;;;;8.45;6.43;;;;;;;19.10;66.96;99556.19;5091683;28;20429;-23
2021/07/03 01:34:49;;;;;;;9.48;7.00;;;;;;;19.19;67.64;99585.00;5109970;28;20030;-23
2021/07/03 01:37:15;;;;;;;10.20;7.20;;;;;;;19.20;67.71;99581.19;5109764;28;20031;-23
2021/07/03 01:39:40;;;;;;;8.85;6.63;;;;;;;18.99;68.38;99580.63;5109759;28;20038;-23
2021/07/03 01:42:07;;;;;;;10.05;6.68;;;;;;;19.21;67.21;99574.72;5109261;28;20031;-23
2021/07/03 01:44:33;;;;;;;11.48;7.30;;;;;;;19.01;67.60;99578.44;5109590;28;20030;-23
2021/07/03 01:46:59;;;;;;;9.90;6.70;;;;;;;19.15;67.70;99597.47;5110028;28;20028;-23
2021/07/03 01:49:26;;;;;;;8.75;6.70;;;;;;;19.28;67.50;99601.38;5109624;28;20023;-23
2021/07/03 01:51:51;;;;;;;8.82;6.50;;;;;;;19.20;66.75;99594.69;5109069;28;20024;-23
2021/07/03 01:54:17;;;;;;;8.50;6.32;;;;;;;19.08;67.27;99605.09;5109450;28;20114;-23
2021/07/03 01:56:43;;;;;;;10.77;7.00;;;;;;;19.06;67.66;99604.59;5109316;28;20067;-22
2021/07/03 01:59:09;;;;;;;8.80;6.45;;;;;;;18.97;67.09;99595.50;5109257;28;20478;-23
2021/07/03 02:01:34;;;;;;;7.65;5.32;;;;;;;18.67;67.94;99605.47;5108074;28;20102;-23
2021/07/03 02:04:00;;;;;;;7.45;5.80;;;;;;;18.34;69.36;99591.72;5108933;28;20122;-23
2021/07/03 02:06:26;;;;;;;9.13;6.03;;;;;;;18.28;69.48;99601.72;5090901;28;20046;-22
2021/07/03 02:08:51;;;;;;;9.27;6.10;;;;;;;18.21;69.72;99612.06;5109372;28;20479;-24
2021/07/03 02:11:17;;;;;;;8.55;6.05;;;;;;;18.30;68.92;99595.25;5109489;28;20027;-23
2021/07/03 02:13:42;;;;;;;9.52;6.22;;;;;;;18.48;68.16;99608.88;5109154;28;20075;-23
2021/07/03 02:16:08;;;;;;;7.50;5.78;;;;;;;18.24;68.29;99573.69;5108816;28;20024;-23
2021/07/03 02:18:33;;;;;;;9.40;6.97;;;;;;;18.45;68.16;99598.66;5108977;28;20038;-23
2021/07/03 02:20:59;;;;;;;9.50;6.40;;;;;;;18.50;68.18;99607.78;5108904;28;20028;-22
2021/07/03 02:23:24;;;;;;;9.15;6.55;;;;;;;18.72;67.08;99612.75;5108639;28;20058;-23
2021/07/03 02:25:50;;;;;;;9.80;6.07;;;;;;;18.46;68.03;99605.66;5108694;28;20027;-23
2021/07/03 02:28:15;;;;;;;8.35;5.43;;;;;;;18.37;67.27;99595.72;5108741;28;20039;-22
2021/07/03 02:30:41;;;;;;;9.00;6.00;;;;;;;18.54;66.58;99611.53;5108819;28;20031;-23
2021/07/03 02:33:07;;;;;;;9.52;5.45;;;;;;;18.42;66.37;99603.81;5108614;28;20392;-22
2021/07/03 02:35:32;;;;;;;7.72;5.15;;;;;;;18.34;66.02;99599.00;5108681;28;20030;-23
2021/07/03 02:37:58;;;;;;;6.78;5.53;;;;;;;18.53;65.86;99623.41;5108462;28;20032;-23
2021/07/03 02:40:24;;;;;;;7.93;5.30;;;;;;;18.59;64.97;99616.88;5108595;28;20032;-22
2021/07/03 02:42:49;;;;;;;7.25;5.25;;;;;;;18.44;65.09;99604.31;5090158;28;20114;-23
2021/07/03 02:45:15;;;;;;;7.25;5.68;;;;;;;18.34;65.79;99613.31;5108733;28;20394;-23
2021/07/03 02:47:41;;;;;;;6.80;5.00;;;;;;;18.36;65.64;99616.53;5108825;28;20147;-27
2021/07/03 02:50:08;;;;;;;7.07;5.22;;;;;;;18.51;65.03;99620.19;5108504;28;20092;-22
2021/07/03 02:52:34;;;;;;;10.88;5.38;;;;;;;18.55;65.02;99622.06;5108554;28;20035;-23
2021/07/03 02:54:59;;;;;;;8.52;5.53;;;;;;;18.32;65.35;99601.97;5090353;28;20034;-22
2021/07/03 02:57:25;;;;;;;7.07;4.80;;;;;;;18.40;64.96;99614.06;5108192;28;20028;-23
2021/07/03 02:59:50;;;;;;;6.05;5.03;;;;;;;18.47;65.38;99626.19;5108164;28;20054;-22
2021/07/03 03:02:16;;;;;;;8.23;5.43;;;;;;;18.55;64.86;99629.34;5107972;28;20052;-23
2021/07/03 03:04:41;;;;;;;8.75;5.18;;;;;;;18.57;64.85;99630.69;5108171;28;20046;-23
2021/07/03 03:07:07;;;;;;;6.80;5.07;;;;;;;18.32;65.26;99615.47;5108178;28;20099;-22
2021/07/03 03:09:32;;;;;;;7.55;5.32;;;;;;;18.42;65.13;99618.09;5108267;28;20028;-23
2021/07/03 03:11:58;;;;;;;7.22;4.72;;;;;;;18.34;65.12;99629.50;5107877;28;20024;-22
2021/07/03 03:14:24;;;;;;;7.88;5.43;;;;;;;18.33;65.28;99618.97;5108003;28;20509;-23
2021/07/03 03:16:50;;;;;;;8.90;5.05;;;;;;;18.12;65.58;99607.53;5108042;28;20095;-23
2021/07/03 03:19:15;;;;;;;7.60;4.78;;;;;;;18.30;65.42;99624.94;5108041;28;20043;-23
2021/07/03 03:21:41;;;;;;;6.60;5.03;;;;;;;18.20;65.24;99618.53;5108041;28;20027;-23
2021/07/03 03:24:06;;;;;;;7.80;4.93;;;;;;;18.25;65.35;99623.91;5108031;28;20483;-22
2021/07/03 03:26:32;;;;;;;8.18;5.28;;;;;;;18.50;64.17;99613.19;5108272;28;20032;-22
2021/07/03 03:28:57;;;;;;;6.60;5.00;;;;;;;18.41;64.34;99618.41;5108297;28;20042;-22
2021/07/03 03:31:23;;;;;;;6.25;5.15;;;;;;;18.45;64.24;99628.34;5108052;28;20035;-22
2021/07/03 03:33:48;;;;;;;7.40;4.53;;;;;;;18.52;64.08;99638.03;5107541;28;20031;-22
2021/07/03 03:36:14;;;;;;;7.72;5.40;;;;;;;18.52;63.92;99619.13;5089844;28;20031;-23
2021/07/03 03:38:39;;;;;;;5.63;4.80;;;;;;;18.47;63.27;99620.78;5108028;28;20024;-22
2021/07/03 03:41:05;;;;;;;6.60;5.40;;;;;;;18.61;62.82;99630.91;5107791;28;20082;-23
2021/07/03 03:43:30;;;;;;;5.70;5.07;;;;;;;18.67;62.40;99636.00;5107688;28;20090;-22
2021/07/03 03:45:56;;;;;;;6.20;4.88;;;;;;;18.61;62.75;99633.63;5089394;28;20035;-22
2021/07/03 03:48:21;;;;;;;7.38;5.05;;;;;;;18.74;62.55;99638.38;5107837;28;20039;-23
2021/07/03 03:50:47;;;;;;;5.25;4.68;;;;;;;18.72;62.11;99632.44;5107676;28;20415;-23
2021/07/03 03:53:12;;;;;;;7.18;5.10;;;;;;;18.66;62.66;99609.28;5107857;28;20027;-22
2021/07/03 03:55:38;;;;;;;5.53;4.65;;;;;;;18.78;61.87;99628.63;5107670;28;20555;-22
2021/07/03 03:58:03;;;;;;;5.35;4.80;;;;;;;18.86;61.91;99621.84;5107598;28;20035;-23
2021/07/03 04:00:29;;;;;;;6.68;5.03;;;;;;;18.87;62.00;99624.22;5108002;28;20407;-22
2021/07/03 04:02:55;;;;;;;6.15;5.13;;;;;;;18.90;61.69;99632.84;5107613;28;20052;-22
2021/07/03 04:05:21;;;;;;;5.55;4.70;;;;;;;18.79;61.73;99627.53;5107554;28;20028;-22
2021/07/03 04:07:46;;;;;;;6.47;5.05;;;;;;;18.96;62.10;99623.59;5107505;28;20032;-22
2021/07/03 04:10:13;;;;;;;5.68;5.05;;;;;;;18.87;62.25;99612.63;5107810;28;20033;-22
2021/07/03 04:12:38;;;;;;;6.30;4.93;;;;;;;19.09;62.13;99617.53;5107597;28;20045;-23
2021/07/03 04:15:04;;;;;;;5.97;4.90;;;;;;;19.15;61.22;99619.09;5107609;28;20491;-22
2021/07/03 04:17:30;;;;;;;5.35;4.60;;;;;;;19.26;61.67;99634.09;5107761;28;20111;-23
2021/07/03 04:19:55;;;;;;;6.93;4.85;;;;;;;19.25;61.30;99639.81;5107049;28;20031;-22
2021/07/03 04:22:21;;;;;;;5.80;4.82;;;;;;;19.28;61.33;99626.50;5089103;28;20449;-23
2021/07/03 04:24:46;;;;;;;5.18;4.68;;;;;;;19.01;62.30;99618.16;5108155;28;20051;-23
2021/07/03 04:27:12;;;;;;;5.47;4.63;;;;;;;19.31;60.78;99627.03;5111057;28;20551;-23
2021/07/03 04:29:38;;;;;;;7.60;5.22;;;;;;;19.33;61.24;99631.06;5111224;28;20092;-23
2021/07/03 04:32:04;;;;;;;5.22;4.47;;;;;;;19.01;61.73;99618.16;5110931;28;20036;-23
2021/07/03 04:34:29;;;;;;;4.72;4.20;;;;;;;19.30;61.26;99638.94;5110898;28;20059;-23
2021/07/03 04:36:55;;;;;;;7.00;4.57;;;;;;;19.33;61.01;99630.25;5092704;28;20094;-23
2021/07/03 04:39:21;;;;;;;6.28;4.60;;;;;;;19.38;61.05;99658.03;5110989;28;20102;-23
2021/07/03 04:41:46;;;;;;;6.15;4.32;;;;;;;19.45;60.61;99642.28;5110905;28;20066;-23
2021/07/03 04:44:13;;;;;;;5.95;4.55;;;;;;;19.45;60.65;99660.41;5110799;28;20379;-22
2021/07/03 04:46:39;;;;;;;6.67;4.17;;;;;;;19.31;60.64;99648.66;5092493;28;20035;-22
2021/07/03 04:49:05;;;;;;;5.60;4.50;;;;;;;19.39;60.89;99648.03;5092842;28;20024;-22
2021/07/03 04:51:30;;;;;;;4.85;4.20;;;;;;;19.66;60.66;99656.38;5110682;28;20106;-22
2021/07/03 04:53:56;;;;;;;4.82;4.32;;;;;;;19.63;59.80;99645.31;5110375;28;20047;-22
2021/07/03 04:56:21;;;;;;;4.78;4.25;;;;;;;19.72;59.70;99656.34;5110503;28;20032;-22
2021/07/03 04:58:47;;;;;;;4.72;4.07;;;;;;;19.78;59.26;99660.59;5110483;28;20106;-22
2021/07/03 05:01:13;;;;;;;6.43;4.13;;;;;;;19.79;59.68;99657.59;5110268;28;20502;-22
2021/07/03 05:03:38;;;;;;;5.35;4.13;;;;;;;19.93;59.82;99654.19;5110125;28;20085;-23
2021/07/03 05:06:04;;;;;;;6.85;4.15;;;;;;;20.03;59.73;99654.84;5110272;28;20031;-23
2021/07/03 05:08:29;;;;;;;4.97;4.18;;;;;;;19.86;59.27;99665.38;5110225;28;20039;-23
2021/07/03 05:10:55;;;;;;;5.72;4.43;;;;;;;20.16;59.66;99671.47;5110169;28;20028;-23
2021/07/03 05:13:20;;;;;;;6.00;4.63;;;;;;;20.18;59.72;99677.38;5110199;28;20032;-23
2021/07/03 05:15:45;;;;;;;4.57;3.90;;;;;;;20.22;59.21;99673.78;5110079;28;20490;-23
2021/07/03 05:18:11;;;;;;;4.05;3.63;;;;;;;20.21;58.26;99682.22;5110236;28;20547;-23
2021/07/03 05:20:36;;;;;;;5.82;4.50;;;;;;;20.41;58.95;99665.69;5110266;28;20031;-23
2021/07/03 05:23:02;;;;;;;6.70;4.00;;;;;;;20.54;58.26;99652.50;5109891;28;20034;-23
2021/07/03 05:25:28;;;;;;;5.20;3.63;;;;;;;20.66;57.29;99650.16;5109796;28;20520;-22
2021/07/03 05:27:53;;;;;;;5.32;3.80;;;;;;;20.89;56.92;99656.53;5109617;28;20034;-23
2021/07/03 05:30:19;;;;;;;6.63;3.75;;;;;;;21.05;56.84;99654.38;5110067;28;20081;-22
2021/07/03 05:32:44;;;;;;;4.55;3.15;;;;;;;21.11;55.77;99649.66;5109667;28;20407;-22
2021/07/03 05:35:11;;;;;;;5.00;3.13;;;;;;;21.11;56.14;99631.50;5109971;28;20050;-22
2021/07/03 05:37:36;;;;;;;4.50;3.28;;;;;;;21.20;55.78;99647.88;5109483;28;20034;-22
2021/07/03 05:40:03;;;;;;;4.03;3.15;;;;;;;21.22;55.13;99619.34;5109204;28;20031;-23
2021/07/03 05:42:29;;;;;;;3.90;3.10;;;;;;;21.27;54.84;99627.38;5091366;28;20111;-22
2021/07/03 05:44:54;;;;;;;5.78;3.33;;;;;;;21.58;55.08;99645.81;5109580;28;20106;-22
2021/07/03 05:47:20;;;;;;;4.07;2.55;;;;;;;21.62;54.81;99638.66;5109862;28;20042;-22
2021/07/03 05:49:46;;;;;;;3.83;2.50;;;;;;;21.94;53.58;99647.75;5091280;28;20083;-22
2021/07/03 05:52:11;;;;;;;5.63;3.05;;;;;;;22.08;52.92;99656.66;5091058;28;20035;-22
2021/07/03 05:54:37;;;;;;;4.53;2.80;;;;;;;22.07;53.80;99638.78;5109384;28;20051;-24
2021/07/03 05:57:02;;;;;;;4.22;2.40;;;;;;;22.06;52.95;99630.94;5109587;28;20047;-22
2021/07/03 05:59:28;;;;;;;2.10;1.90;;;;;;;22.08;52.02;99636.84;5091407;28;20092;-22
2021/07/03 06:01:53;;;;;;;5.43;2.47;;;;;;;22.23;52.34;99639.28;5108670;28;20063;-22
2021/07/03 06:04:19;;;;;;;3.13;1.95;;;;;;;22.26;51.58;99621.56;5109332;28;20448;-22
2021/07/03 06:06:44;;;;;;;5.95;2.28;;;;;;;22.29;52.46;99629.06;5109111;28;20106;-22
2021/07/03 06:09:10;;;;;;;2.75;2.22;;;;;;;22.41;52.14;99631.25;5109021;28;20139;-22
2021/07/03 06:11:35;;;;;;;2.17;1.92;;;;;;;22.62;51.57;99639.72;5109103;28;20035;-22
2021/07/03 06:14:01;;;;;;;2.80;1.83;;;;;;;22.46;50.69;99626.50;5108770;28;20166;-22
2021/07/03 06:16:26;;;;;;;4.35;2.22;;;;;;;22.51;50.75;99608.47;5090786;28;20461;-22
2021/07/03 06:18:52;;;;;;;3.88;2.00;;;;;;;22.74;51.05;99618.22;5108783;28;20522;-22
2021/07/03 06:21:17;;;;;;;5.05;2.30;;;;;;;22.76;48.92;99613.28;5108785;28;20084;-22
2021/07/03 06:23:43;;;;;;;3.30;2.10;;;;;;;22.86;49.05;99632.03;5108683;28;20054;-22
2021/07/03 06:26:08;;;;;;;3.65;2.42;;;;;;;23.00;49.23;99631.94;5108616;28;20031;-22
2021/07/03 06:28:34;;;;;;;3.25;2.10;;;;;;;23.17;48.01;99636.69;5108674;28;20020;-23
2021/07/03 06:30:59;;;;;;;3.88;2.00;;;;;;;23.14;47.21;99642.75;5108751;28;20031;-23
2021/07/03 06:33:25;;;;;;;4.60;2.15;;;;;;;23.34;48.52;99619.63;5109082;28;20023;-22
2021/07/03 06:35:51;;;;;;;4.25;2.00;;;;;;;23.90;47.39;99636.28;5108387;28;20411;-22
2021/07/03 06:38:16;;;;;;;2.50;2.00;;;;;;;23.87;47.29;99639.66;5108464;28;20034;-22
2021/07/03 06:40:42;;;;;;;2.58;1.70;;;;;;;23.78;47.13;99623.31;5108445;28;20417;-22
2021/07/03 06:43:08;;;;;;;3.30;1.80;;;;;;;23.94;47.04;99642.69;5108471;28;20020;-22
2021/07/03 06:45:33;;;;;;;3.53;2.13;;;;;;;23.58;47.67;99651.88;5108515;28;20073;-22
2021/07/03 06:47:59;;;;;;;5.13;1.88;;;;;;;23.56;46.17;99637.78;5107705;28;20453;-22
2021/07/03 06:50:24;;;;;;;4.13;2.20;;;;;;;23.81;46.73;99632.75;5108452;28;20028;-22
2021/07/03 06:52:50;;;;;;;4.88;2.13;;;;;;;23.84;47.09;99643.00;5108182;28;20063;-22
2021/07/03 06:55:15;;;;;;;3.85;2.00;;;;;;;24.03;47.84;99635.34;5108694;28;20088;-22
2021/07/03 06:57:41;;;;;;;3.92;2.05;;;;;;;24.03;46.48;99645.44;5108395;28;20499;-22
2021/07/03 07:00:07;;;;;;;3.22;1.77;;;;;;;24.00;46.10;99646.88;5108105;28;20024;-22
2021/07/03 07:02:33;;;;;;;4.20;1.88;;;;;;;24.00;47.53;99652.31;5107495;28;20061;-22
2021/07/03 07:04:58;;;;;;;4.45;1.80;;;;;;;23.85;45.93;99650.06;5108049;28;20202;-22
2021/07/03 07:07:24;;;;;;;3.28;1.58;;;;;;;23.83;45.99;99641.41;5108049;28;20067;-22
2021/07/03 07:09:49;;;;;;;2.70;1.70;;;;;;;24.06;44.64;99640.13;5107785;28;20131;-22
2021/07/03 07:12:16;;;;;;;4.43;2.05;;;;;;;24.08;45.65;99626.22;5108179;28;20804;-22
2021/07/03 07:14:42;;;;;;;4.22;2.08;;;;;;;24.34;45.86;99628.94;5108068;28;20031;-22
2021/07/03 07:17:08;;;;;;;4.75;2.20;;;;;;;24.68;45.95;99627.31;5107610;28;20038;-22
2021/07/03 07:19:34;;;;;;;5.20;2.35;;;;;;;24.53;41.48;99625.09;5108072;28;20111;-22
2021/07/03 07:21:59;;;;;;;3.05;1.83;;;;;;;24.46;42.89;99620.91;5107574;28;20031;-22
2021/07/03 07:24:25;;;;;;;4.10;2.10;;;;;;;24.84;43.64;99635.78;5108030;28;20430;-22
2021/07/03 07:26:50;;;;;;;4.32;2.00;;;;;;;24.51;43.07;99619.16;5107919;28;20038;-22
2021/07/03 07:29:16;;;;;;;3.72;1.80;;;;;;;24.61;41.67;99616.09;5108103;28;20043;-22
2021/07/03 07:31:41;;;;;;;2.55;1.73;;;;;;;24.81;42.68;99612.69;5108013;28;20028;-22
2021/07/03 07:34:07;;;;;;;2.90;1.80;;;;;;;24.40;42.19;99605.06;5107728;28;20114;-22
2021/07/03 07:36:32;;;;;;;5.65;1.50;;;;;;;24.53;41.64;99619.66;5107610;28;20110;-22
2021/07/03 07:38:58;;;;;;;3.83;1.88;;;;;;;24.45;42.94;99613.84;5108073;28;20067;-22
2021/07/03 07:41:24;;;;;;;3.13;1.60;;;;;;;24.79;43.61;99600.50;5107803;28;20088;-22
2021/07/03 07:43:50;;;;;;;3.50;1.90;;;;;;;25.17;43.16;99614.19;5089419;28;20053;-23
2021/07/03 07:46:15;;;;;;;4.43;1.98;;;;;;;25.23;39.65;99626.53;5108258;28;20475;-22
2021/07/03 07:48:41;;;;;;;3.67;1.90;;;;;;;25.33;40.27;99614.44;5107978;28;20195;-22
2021/07/03 07:51:07;;;;;;;2.17;1.58;;;;;;;25.17;39.02;99613.34;5107993;28;20031;-22
2021/07/03 07:53:32;;;;;;;3.40;1.50;;;;;;;25.13;38.97;99626.06;5107820;28;20032;-22
2021/07/03 07:55:58;;;;;;;3.42;1.63;;;;;;;25.02;38.56;99610.03;5107453;28;20035;-22
2021/07/03 07:58:24;;;;;;;3.28;2.05;;;;;;;25.25;38.97;99629.75;5107676;28;20036;-22
2021/07/03 08:00:50;;;;;;;3.88;1.65;;;;;;;25.46;39.31;99634.47;5109977;28;20039;-22
2021/07/03 08:03:15;;;;;;;2.47;1.60;;;;;;;25.36;38.26;99623.91;5092970;28;20161;-22
2021/07/03 08:05:41;;;;;;;3.45;1.60;;;;;;;25.65;39.05;99632.09;5093325;28;20035;-22
2021/07/03 08:08:07;;;;;;;3.15;1.48;;;;;;;25.51;38.47;99623.34;5093139;28;20058;-22
2021/07/03 08:10:33;;;;;;;2.67;1.90;;;;;;;25.64;39.52;99625.03;5111544;28;20403;-22
2021/07/03 08:12:59;;;;;;;2.70;1.52;;;;;;;25.86;38.13;99617.66;5111220;28;20027;-22
2021/07/03 08:15:24;;;;;;;2.97;1.90;;;;;;;25.76;36.64;99613.38;5111146;28;20031;-22
2021/07/03 08:17:50;;;;;;;3.50;1.67;;;;;;;25.88;38.34;99614.59;5111072;28;20067;-22
2021/07/03 08:20:17;;;;;;;4.32;1.88;;;;;;;25.74;36.91;99631.25;5092910;28;20023;-22
2021/07/03 08:22:43;;;;;;;3.25;1.88;;;;;;;25.85;38.92;99622.34;5111170;28;20031;-22
2021/07/03 08:25:10;;;;;;;2.97;1.70;;;;;;;25.88;36.76;99623.59;5093147;28;20036;-22
2021/07/03 08:27:35;;;;;;;3.47;1.65;;;;;;;25.99;38.46;99624.84;5111044;28;20058;-22
2021/07/03 08:30:01;;;;;;;3.92;1.60;;;;;;;26.20;38.98;99629.50;5110761;28;20055;-23
2021/07/03 08:32:26;;;;;;;4.65;1.75;;;;;;;26.67;39.34;99609.31;5111416;28;20035;-23
2021/07/03 08:34:52;;;;;;;5.50;1.98;;;;;;;26.28;37.60;99611.44;5111553;28;20096;-22
2021/07/03 08:37:17;;;;;;;3.63;1.70;;;;;;;26.20;37.03;99613.09;5075865;28;20035;-22
2021/07/03 08:39:43;;;;;;;7.43;1.80;;;;;;;26.10;38.38;99618.97;5110830;28;20028;-22
2021/07/03 08:42:09;;;;;;;2.78;1.90;;;;;;;26.72;38.57;99618.09;5110400;28;20031;-22
2021/07/03 08:44:35;;;;;;;5.50;1.70;;;;;;;26.67;38.22;99615.56;5110787;28;20027;-22
2021/07/03 08:47:00;;;;;;;3.85;1.67;;;;;;;26.39;37.31;99615.34;5092391;28;20023;-22
2021/07/03 08:49:26;;;;;;;6.28;1.70;;;;;;;26.34;37.47;99619.09;5110522;28;20035;-22
2021/07/03 08:51:52;;;;;;;2.85;1.70;;;;;;;26.72;36.84;99612.63;5110474;28;20376;-22
2021/07/03 08:54:17;;;;;;;3.45;1.95;;;;;;;27.05;36.89;99609.03;5110504;28;20171;-22
2021/07/03 08:56:43;;;;;;;3.97;1.65;;;;;;;27.01;34.60;99602.63;5110637;28;20557;-22
2021/07/03 08:59:16;;;;;;;2.97;1.80;;;;;;;26.84;36.91;99607.16;5110398;28;20028;-22
2021/07/03 09:01:54;;;;;;;3.75;1.90;;;;;;;26.81;36.72;99594.19;5110121;28;20118;-22
2021/07/03 09:04:41;;;;;;;3.42;1.65;;;;;;;26.83;36.60;99602.84;5110017;28;20043;-23
2021/07/03 09:07:21;;;;;;;2.55;1.60;;;;;;;26.75;36.60;99601.00;5092203;28;20016;-22
2021/07/03 09:09:52;;;;;;;3.72;2.05;;;;;;;26.60;36.45;99593.44;5110071;28;20088;-22
2021/07/03 09:12:32;;;;;;;3.17;2.05;;;;;;;26.46;36.94;99594.53;5109512;28;20061;-22
2021/07/03 09:15:14;;;;;;;3.13;1.88;;;;;;;26.56;36.52;99592.47;5110305;28;20059;-22
2021/07/03 09:17:49;;;;;;;3.10;1.58;;;;;;;26.83;34.06;99602.06;5091837;28;20094;-23
2021/07/03 09:20:21;;;;;;;2.05;1.40;;;;;;;27.12;33.74;99597.53;5110075;28;20112;-22
2021/07/03 09:22:46;;;;;;;2.20;1.33;;;;;;;27.07;34.11;99601.25;5109935;28;20103;-22
2021/07/03 09:25:21;;;;;;;2.83;1.50;;;;;;;27.32;33.62;99598.56;5110025;28;20023;-22
2021/07/03 09:27:46;;;;;;;3.47;1.52;;;;;;;27.71;33.47;99593.53;5109611;28;20563;-22
2021/07/03 09:30:14;;;;;;;3.47;1.65;;;;;;;27.63;32.44;99590.56;5110213;28;20039;-23
2021/07/03 09:32:46;;;;;;;3.10;1.90;;;;;;;27.75;32.15;99583.47;5109687;28;20055;-22
2021/07/03 09:35:12;;;;;;;3.47;1.73;;;;;;;27.56;34.17;99589.53;5092664;28;20491;-22
2021/07/03 09:37:38;;;;;;;1.95;1.40;;;;;;;27.97;32.39;99585.72;5074597;28;20495;-22
2021/07/03 09:40:08;;;;;;;2.22;1.60;;;;;;;27.73;33.39;99580.28;5074504;28;20043;-22
2021/07/03 09:42:38;;;;;;;1.98;1.40;;;;;;;27.72;31.97;99570.47;5108429;28;20059;-22
2021/07/03 09:45:06;;;;;;;2.58;1.80;;;;;;;27.37;32.27;99587.41;5109391;28;20023;-22
2021/07/03 09:47:33;;;;;;;2.38;1.55;;;;;;;27.67;34.35;99584.41;5109578;28;20111;-22
2021/07/03 09:50:06;;;;;;;2.90;1.90;;;;;;;27.52;34.64;99583.16;5108934;28;20527;-23
2021/07/03 09:52:36;;;;;;;3.22;1.70;;;;;;;27.50;34.40;99558.84;5109401;28;20030;-22
2021/07/03 09:55:03;;;;;;;4.32;1.70;;;;;;;27.55;33.09;99588.75;5109729;28;20023;-22
2021/07/03 09:57:29;;;;;;;2.67;1.50;;;;;;;27.40;33.99;99576.56;5091197;28;20027;-22
2021/07/03 09:59:55;;;;;;;3.47;1.70;;;;;;;27.40;33.54;99589.44;5090805;28;20043;-22
2021/07/03 10:02:21;;;;;;;2.78;1.33;;;;;;;27.63;32.68;99574.13;5109120;28;20031;-22
2021/07/03 10:04:46;;;;;;;5.13;1.77;;;;;;;27.34;33.52;99577.94;5070536;28;20060;-22
2021/07/03 10:07:17;;;;;;;2.95;1.70;;;;;;;27.36;34.17;99563.88;5088620;28;20109;-22
2021/07/03 10:09:54;;;;;;;2.95;1.60;;;;;;;27.78;33.89;99569.84;5071646;28;20041;-22
2021/07/03 10:12:27;;;;;;;2.90;1.70;;;;;;;27.59;34.19;99554.03;5088773;28;20024;-22
2021/07/03 10:14:53;;;;;;;3.17;1.83;;;;;;;28.40;33.81;99575.94;5088580;28;20111;-22
2021/07/03 10:17:25;;;;;;;2.85;1.90;;;;;;;27.68;34.50;99555.84;5053904;28;20123;-22
2021/07/03 10:19:51;;;;;;;4.10;1.75;;;;;;;27.92;34.73;99550.34;5088584;28;20092;-22
2021/07/03 10:22:24;;;;;;;3.30;1.90;;;;;;;27.89;34.71;99562.00;5087478;28;20035;-22
2021/07/03 10:25:16;;;;;;;2.50;1.70;;;;;;;27.64;34.04;99544.78;5087606;28;20046;-22
2021/07/03 10:28:09;;;;;;;4.30;2.10;;;;;;;27.87;33.47;99549.78;5079062;28;20083;-22
2021/07/03 10:30:36;;;;;;;2.42;1.73;;;;;;;27.98;33.33;99562.63;5083529;28;20396;-21
2021/07/03 10:33:12;;;;;;;4.22;1.90;;;;;;;28.10;34.65;99550.06;5088286;28;20036;-22
2021/07/03 10:35:44;;;;;;;5.05;1.88;;;;;;;28.21;34.58;99542.91;5088598;28;20032;-22
2021/07/03 10:38:24;;;;;;;4.50;2.20;;;;;;;28.07;34.33;99553.47;5088053;28;20055;-21
2021/07/03 10:40:52;;;;;;;5.57;2.38;;;;;;;28.48;34.00;99535.78;5088174;28;20536;-22
2021/07/03 10:43:17;;;;;;;4.25;1.73;;;;;;;28.89;33.80;99516.44;5087915;28;20089;-22
2021/07/03 10:46:10;;;;;;;4.13;2.00;;;;;;;28.94;33.50;99540.88;5088123;28;20036;-22
2021/07/03 10:48:35;;;;;;;3.22;1.70;;;;;;;28.95;32.22;99524.06;5085194;28;20036;-22
2021/07/03 10:51:11;;;;;;;4.30;1.92;;;;;;;28.80;30.97;99536.63;5088295;28;20035;-22
2021/07/03 10:53:37;;;;;;;3.00;1.70;;;;;;;28.71;31.79;99526.97;5087964;28;20024;-22
2021/07/03 10:56:13;;;;;;;3.95;1.92;;;;;;;28.35;31.88;99510.38;5087658;28;20036;-22
2021/07/03 10:58:40;;;;;;;3.55;1.50;;;;;;;28.40;32.62;99512.06;5087830;28;20024;-22
2021/07/03 11:01:13;;;;;;;2.42;1.52;;;;;;;28.48;32.98;99513.84;5086564;28;20040;-22
2021/07/03 11:03:51;;;;;;;2.45;1.45;;;;;;;28.98;32.56;99519.81;5086503;28;20125;-22
2021/07/03 11:06:18;;;;;;;3.28;1.63;;;;;;;28.58;32.16;99518.81;5087849;28;20114;-22
2021/07/03 11:08:44;;;;;;;2.80;1.95;;;;;;;28.62;31.90;99529.91;5087845;28;20036;-22
2021/07/03 11:11:13;;;;;;;3.25;1.83;;;;;;;28.87;32.14;99516.00;5087684;28;20629;-22
2021/07/03 11:13:40;;;;;;;2.78;1.90;;;;;;;29.30;30.38;99528.00;5087612;28;20047;-22
2021/07/03 11:16:13;;;;;;;2.33;1.80;;;;;;;28.98;31.42;99514.31;5087402;28;20050;-22
2021/07/03 11:18:43;;;;;;;3.88;1.88;;;;;;;29.09;32.59;99515.34;5086756;28;20046;-22
2021/07/03 11:21:09;;;;;;;1.85;1.65;;;;;;;28.99;33.27;99516.72;5086656;28;20025;-22
2021/07/03 11:23:36;;;;;;;5.25;2.13;;;;;;;28.94;30.67;99521.66;5086342;28;20034;-22
2021/07/03 11:26:07;;;;;;;3.90;1.70;;;;;;;28.84;30.92;99523.00;5086509;28;20206;-22
2021/07/03 11:28:32;;;;;;;4.85;1.75;;;;;;;29.29;32.58;99524.47;5087702;28;20036;-22